Beal Atha hAmhnais, Ireland

6:09 AM GMT on December 27, 2014 (GMT +0000)
Derrynacong | Change Station
CLOSE
Current Station
Personal Weather Station
Location: Ballyhaunis, MAYO
Elevation: 292 ft
Nearby Weather Stations

Elev 292 ft 53.78 °N, 8.72 °W | Updated 3 seconds ago

Mostly Cloudy
Mostly Cloudy
36.0 °F
Feels Like 32 °F
N
4.5
Wind Variable Wind from SW
Gusts 5.6 mph

Today
High -- | Low -- °F
--% Chance of Precip.
Yesterday
High -- | Low -- °F
Precip. -- in
8:52 AM 4:19 PM
Waxing Crescent, 33% visible
Pressure 29.98 in
Visibility 6.2 miles
Clouds Scattered Clouds 2000 ft
Mostly Cloudy 6000 ft
Windchill 32 °F
Dew Point 35 °F
Humidity 95%
Rainfall 0.02 in
Snow Depth Not available.
UV 0.0 out of 12
Pollen Not available.
Air Quality Not available.
Flu Activity Not available.
METAR EIKN 270600Z 29011KT 9999 SCT020CB BKN060 03/02 Q1015 NOSIG

More Conditions Fewer Conditions

Pressure 29.98 in
Visibility 6.2 miles
Clouds Scattered Clouds 2000 ft
Mostly Cloudy 6000 ft
Windchill 32 °F
Dew Point 35 °F
Humidity 95%
Rainfall 0.02 in
Snow Depth Not available.
UV 0.0 out of 12
Pollen Not available.
Air Quality Not available.
Flu Activity Not available.
METAR EIKN 270600Z 29011KT 9999 SCT020CB BKN060 03/02 Q1015 NOSIG

More Conditions Fewer Conditions

10-Day Weather Forecast

Almanac

Astronomy

Dec. 27, 2014 Rise Set
Actual Time
Civil Twilight
Nautical Twilight
Astronomical Twilight
Moon
Length of Visible Light
Length of Day
Tomorrow will be .
, % of the Moon is Illuminated

Today's Extremes

Country Highs Country Lows

Community

WunderPhotos

Upload Photos

1,780,853 photos uploaded!

WunderBlogs® & News

Nearby

Air Quality

  Air Quality AQ Index Pollutant
Not available.

Snow Depth

Station Depth Elevation

Earthquake Activity

City Distance Mag. Time & Date
Minimum magnitude displayed is 2.5.

Coastal Water Temperatures

Place Temperature

Nearby Weather Stations